SGEN/ENO METAR and TAF weather

Enter ICAO airport designator
Station Type Date Time Source
SGEN METAR 2019/10/13 21:00 UTC NOAA

SGEN 132100Z 25004KT 9999 SCT030 FEW040TCU BKN060 36/20 Q1006


Station Type Date Time Source
SGEN Decoded METAR 2019/10/13 21:00 UTC NOAA

Encarnacion, Paraguay (SGEN) 27-19S 055-50W 91M
Oct 13, 2019 - 05:00 PM EDT / 2019.10.13 2100 UTC
Wind: from the WSW (250 degrees) at 5 MPH (4 KT):0
Visibility: greater than 7 mile(s):0
Sky conditions: mostly cloudy
Weather: Towering cumulus clouds observed
Temperature: 96 F (36 C)
Heat index: 100.2 F (37.9 C):1
Dew Point: 68 F (20 C)
Relative Humidity: 39%
Pressure (altimeter): 29.71 in. Hg (1006 hPa)
ob: SGEN 132100Z 25004KT 9999 SCT030 FEW040TCU BKN060 36/20 Q1006
cycle: 21

Station Type Date Time Source
SGEN TAF 2019/10/14 06:00 UTC NOAA

TAF SGEN 140400Z 1406/1506 VRB05KT 8000 -RA BKN021 TX27/1418Z TN20/1409Z
BECMG 1408/1410 21009KT 9999 BKN020
BECMG 1411/1414 22015KT 4000 TSRA OVC015 FEW040CB
TEMPO 1414/1416 7000 TSRA BKN017 FEW040CB
TEMPO 1417/1419 +3000 TSRA BKN015 FEW040CB
BECMG 1419/1421 9000 -TSRA BKN020 FEW040CB
BECMG 1421/1500 17010KT 8000 -RA BKN015

Example: see airport list